Time;durP1;ratioP1;P1;durP2;ratioP2;P2;SDS_P1;SDS_P2;PMS_P1;PMS_P2;Temp;Humidity;BMP_temperature;BMP_pressure;BME280_temperature;BME280_humidity;BME280_pressure;Samples;Min_cycle;Max_cycle;Signal;HPM_P1;HPM_P2
2024/01/20 00:01:33;;;;;;;0.30;0.30;;;;;;;1.53;55.75;100681.47;4475801;32;34496;-89
2024/01/20 00:04:01;;;;;;;0.43;0.43;;;;;;;1.51;56.32;100683.16;4475538;32;34023;-89
2024/01/20 00:06:29;;;;;;;0.00;0.00;;;;;;;1.42;56.10;100691.75;4474814;32;33055;-90
2024/01/20 00:08:57;;;;;;;0.65;0.65;;;;;;;1.33;56.92;100688.22;4480263;32;34556;-90
2024/01/20 00:11:25;;;;;;;0.47;0.47;;;;;;;1.64;56.04;100695.41;4469037;32;33594;-89
2024/01/20 00:13:55;;;;;;;0.90;0.73;;;;;;;1.53;55.93;100691.88;4462227;32;32698;-87
2024/01/20 00:16:23;;;;;;;0.00;0.00;;;;;;;1.40;56.48;100705.63;4472112;32;34380;-88
2024/01/20 00:18:51;;;;;;;0.00;0.00;;;;;;;1.05;57.76;100708.81;4474122;32;33459;-88
2024/01/20 00:21:19;;;;;;;0.00;0.00;;;;;;;1.37;56.54;100703.00;4477016;32;33618;-87
2024/01/20 00:23:47;;;;;;;0.32;0.32;;;;;;;1.13;57.29;100712.34;4475386;32;33524;-86
2024/01/20 00:26:16;;;;;;;0.00;0.00;;;;;;;0.87;58.13;100708.63;4431041;32;32000;-86
2024/01/20 00:28:43;;;;;;;0.00;0.00;;;;;;;0.95;57.72;100712.16;4457591;32;34178;-87
2024/01/20 00:31:12;;;;;;;0.75;0.75;;;;;;;1.14;57.83;100724.50;4455046;32;33519;-88
2024/01/20 00:33:40;;;;;;;0.10;0.10;;;;;;;0.82;58.48;100720.72;4460923;32;34044;-88
2024/01/20 00:36:08;;;;;;;0.73;0.73;;;;;;;0.69;58.82;100720.56;4484695;32;33325;-87
2024/01/20 00:38:38;;;;;;;0.75;0.75;;;;;;;1.06;57.66;100713.16;4460747;32;32444;-87
2024/01/20 00:41:07;;;;;;;0.00;0.00;;;;;;;0.97;57.56;100702.66;4453476;32;33386;-87
2024/01/20 00:43:35;;;;;;;0.00;0.00;;;;;;;0.93;58.25;100709.56;4466039;32;33691;-87
2024/01/20 00:46:03;;;;;;;0.35;0.35;;;;;;;0.91;58.21;100715.59;4458396;32;31983;-87
2024/01/20 00:48:31;;;;;;;2.40;0.28;;;;;;;1.19;57.03;100720.22;4482059;32;34005;-86
2024/01/20 00:50:58;;;;;;;0.10;0.10;;;;;;;1.27;57.01;100715.94;4480029;32;34817;-87
2024/01/20 00:53:26;;;;;;;0.22;0.22;;;;;;;1.50;56.34;100717.84;4479483;32;33943;-87
2024/01/20 00:55:54;;;;;;;1.80;0.70;;;;;;;1.47;56.47;100723.94;4451903;32;31861;-87
2024/01/20 00:58:22;;;;;;;0.00;0.00;;;;;;;1.35;56.79;100729.03;4452187;32;33716;-87
2024/01/20 01:00:49;;;;;;;1.20;0.80;;;;;;;1.37;56.49;100734.22;4476790;32;34673;-87
2024/01/20 01:03:17;;;;;;;1.08;1.08;;;;;;;1.56;56.01;100748.25;4456560;32;33306;-87
2024/01/20 01:05:45;;;;;;;0.10;0.10;;;;;;;1.72;55.41;100745.81;4471557;32;31828;-87
2024/01/20 01:08:13;;;;;;;0.10;0.10;;;;;;;0.77;58.89;100754.47;4453780;32;32435;-87
2024/01/20 01:10:42;;;;;;;0.35;0.35;;;;;;;0.87;58.54;100760.62;4466879;32;34259;-88
2024/01/20 01:13:10;;;;;;;1.45;1.35;;;;;;;0.98;58.03;100761.59;4471170;32;32313;-88
2024/01/20 01:15:39;;;;;;;0.00;0.00;;;;;;;1.35;57.06;100759.37;4457897;32;32948;-88
2024/01/20 01:18:07;;;;;;;0.00;0.00;;;;;;;1.47;56.52;100759.47;4456979;32;32477;-88
2024/01/20 01:20:34;;;;;;;0.00;0.00;;;;;;;1.55;56.07;100757.81;4465674;32;33380;-88
2024/01/20 01:23:02;;;;;;;3.62;3.30;;;;;;;1.39;56.59;100763.75;4457579;32;32153;-85
2024/01/20 01:25:30;;;;;;;1.02;1.02;;;;;;;1.03;58.04;100772.94;4457964;32;32695;-88
2024/01/20 01:27:58;;;;;;;1.10;1.10;;;;;;;0.79;58.54;100783.94;4477024;32;32838;-88
2024/01/20 01:30:26;;;;;;;0.00;0.00;;;;;;;1.21;57.30;100775.72;4477870;32;34763;-88
2024/01/20 01:32:54;;;;;;;0.00;0.00;;;;;;;1.52;56.32;100769.09;4458432;32;32249;-88
2024/01/20 01:35:22;;;;;;;0.00;0.00;;;;;;;1.57;56.05;100766.53;4462363;32;32079;-89
2024/01/20 01:37:49;;;;;;;0.37;0.37;;;;;;;0.95;57.41;100766.75;4462534;32;32991;-89
2024/01/20 01:40:17;;;;;;;0.00;0.00;;;;;;;1.18;57.28;100767.88;4462389;32;33247;-87
2024/01/20 01:42:45;;;;;;;0.50;0.50;;;;;;;1.18;56.54;100773.06;4475457;32;33289;-88
2024/01/20 01:45:12;;;;;;;0.00;0.00;;;;;;;1.47;56.24;100775.97;4477472;32;32220;-89
2024/01/20 01:47:41;;;;;;;1.92;1.23;;;;;;;1.15;57.13;100783.47;4481467;32;34005;-89
2024/01/20 01:50:08;;;;;;;0.00;0.00;;;;;;;1.62;55.79;100770.03;4460793;32;34160;-91
2024/01/20 01:52:37;;;;;;;0.00;0.00;;;;;;;1.03;57.17;100778.12;4464932;32;33112;-90
2024/01/20 01:55:05;;;;;;;1.30;0.35;;;;;;;1.10;57.36;100779.97;4465752;32;32771;-88
2024/01/20 01:57:34;;;;;;;0.00;0.00;;;;;;;1.49;55.92;100778.59;4467178;32;32026;-88
2024/01/20 02:00:04;;;;;;;0.20;0.20;;;;;;;1.21;57.02;100772.25;4476858;32;33926;-88
2024/01/20 02:02:31;;;;;;;0.20;0.20;;;;;;;1.06;57.18;100780.78;4462807;32;32368;-89
2024/01/20 02:05:00;;;;;;;0.60;0.60;;;;;;;0.98;57.79;100791.09;4477956;32;34004;-91
2024/01/20 02:07:31;;;;;;;0.32;0.32;;;;;;;0.93;58.28;100791.91;4465081;32;33230;-91
2024/01/20 02:09:59;;;;;;;0.60;0.60;;;;;;;1.52;56.04;100794.25;4464864;32;34413;-89
2024/01/20 02:12:26;;;;;;;0.15;0.15;;;;;;;1.20;57.02;100801.72;4454868;32;34532;-89
2024/01/20 02:14:55;;;;;;;0.25;0.25;;;;;;;1.23;56.66;100802.59;4463956;32;34033;-89
2024/01/20 02:17:23;;;;;;;0.95;0.20;;;;;;;1.21;56.70;100803.47;4464746;32;32530;-89
2024/01/20 02:19:50;;;;;;;0.03;0.03;;;;;;;0.72;57.67;100809.00;4476837;32;33938;-89
2024/01/20 02:22:18;;;;;;;0.13;0.13;;;;;;;0.58;58.43;100807.06;4452030;32;33894;-88
2024/01/20 02:24:48;;;;;;;0.20;0.20;;;;;;;0.76;57.77;100809.91;4470980;32;32104;-87
2024/01/20 02:27:17;;;;;;;2.08;1.35;;;;;;;1.32;55.70;100806.19;4470624;32;34101;-87
2024/01/20 02:29:45;;;;;;;0.00;0.00;;;;;;;1.56;54.71;100801.19;4477769;32;33342;-88
2024/01/20 02:32:13;;;;;;;0.35;0.35;;;;;;;1.42;55.51;100803.66;4463115;32;32685;-87
2024/01/20 02:34:41;;;;;;;0.10;0.10;;;;;;;1.52;55.25;100799.44;4457109;32;33091;-88
2024/01/20 02:37:09;;;;;;;0.00;0.00;;;;;;;1.56;54.94;100805.53;4469566;32;34279;-90
2024/01/20 02:39:37;;;;;;;1.55;1.02;;;;;;;1.61;54.62;100804.72;4477383;32;34523;-90
2024/01/20 02:42:08;;;;;;;0.28;0.28;;;;;;;1.41;55.21;100806.25;4451130;32;32657;-90
2024/01/20 02:44:39;;;;;;;0.10;0.10;;;;;;;1.40;55.38;100810.59;4465965;32;31882;-90
2024/01/20 02:47:07;;;;;;;0.00;0.00;;;;;;;1.36;55.30;100807.94;4458757;32;32647;-90
2024/01/20 02:49:35;;;;;;;0.00;0.00;;;;;;;1.36;55.48;100813.16;4446574;32;33572;-90
2024/01/20 02:52:03;;;;;;;0.20;0.20;;;;;;;1.23;55.88;100813.03;4478857;32;34013;-90
2024/01/20 02:54:31;;;;;;;0.32;0.32;;;;;;;1.24;55.83;100820.00;4464450;32;33436;-88
2024/01/20 02:56:59;;;;;;;0.20;0.20;;;;;;;1.18;56.01;100827.72;4460089;32;33911;-87
2024/01/20 02:59:27;;;;;;;0.82;0.80;;;;;;;1.20;55.99;100826.00;4481447;32;33828;-87
2024/01/20 03:01:54;;;;;;;0.00;0.00;;;;;;;1.14;55.92;100823.34;4464374;32;30867;-88
2024/01/20 03:04:21;;;;;;;0.00;0.00;;;;;;;0.63;57.57;100844.41;4464120;32;33393;-87
2024/01/20 03:06:50;;;;;;;0.00;0.00;;;;;;;1.16;56.62;100831.16;4460964;32;32799;-87
2024/01/20 03:09:17;;;;;;;0.00;0.00;;;;;;;0.96;57.63;100829.22;4476589;32;33909;-89
2024/01/20 03:11:45;;;;;;;0.40;0.40;;;;;;;1.25;56.37;100832.12;4484596;32;34476;-88
2024/01/20 03:14:13;;;;;;;0.37;0.37;;;;;;;0.89;57.46;100836.91;4457264;32;33811;-89
2024/01/20 03:16:40;;;;;;;0.10;0.10;;;;;;;0.94;57.51;100830.03;4450967;32;32690;-88
2024/01/20 03:19:08;;;;;;;1.23;1.12;;;;;;;0.78;57.75;100847.19;4475368;32;35092;-89
2024/01/20 03:21:35;;;;;;;0.10;0.10;;;;;;;1.32;56.70;100842.59;4461072;32;33158;-89
2024/01/20 03:24:03;;;;;;;0.00;0.00;;;;;;;1.22;56.28;100849.44;4462037;32;31136;-88
2024/01/20 03:26:31;;;;;;;0.10;0.10;;;;;;;1.63;54.90;100847.25;4474411;32;34302;-88
2024/01/20 03:28:59;;;;;;;0.62;0.62;;;;;;;1.44;55.20;100863.56;4460564;32;34387;-88
2024/01/20 03:31:27;;;;;;;0.20;0.20;;;;;;;0.82;56.72;100861.09;4452752;32;34342;-89
2024/01/20 03:33:56;;;;;;;0.47;0.47;;;;;;;0.87;57.21;100867.22;4477721;32;33305;-88
2024/01/20 03:36:24;;;;;;;0.43;0.25;;;;;;;1.17;56.49;100864.13;4474192;32;34207;-89
2024/01/20 03:38:52;;;;;;;1.25;1.17;;;;;;;0.69;57.18;100855.72;4463853;32;33643;-89
2024/01/20 03:41:19;;;;;;;0.65;0.65;;;;;;;1.21;56.26;100865.91;4484009;32;34427;-87
2024/01/20 03:43:47;;;;;;;0.20;0.20;;;;;;;1.17;55.71;100872.78;4478501;32;33320;-88
2024/01/20 03:46:17;;;;;;;0.25;0.25;;;;;;;1.44;55.27;100877.44;4464339;32;33221;-88
2024/01/20 03:48:44;;;;;;;0.00;0.00;;;;;;;1.64;54.81;100880.25;4461791;32;32617;-89
2024/01/20 03:51:12;;;;;;;0.37;0.37;;;;;;;0.86;56.86;100883.69;4463453;32;34018;-89
2024/01/20 03:53:40;;;;;;;0.30;0.30;;;;;;;1.42;55.10;100886.06;4460129;32;31922;-88
2024/01/20 03:56:08;;;;;;;0.30;0.30;;;;;;;1.31;55.18;100885.97;4462069;32;35429;-88
2024/01/20 03:58:36;;;;;;;0.00;0.00;;;;;;;0.89;56.62;100881.13;4465561;32;33794;-88
2024/01/20 04:01:04;;;;;;;0.15;0.15;;;;;;;0.79;57.16;100887.94;4457010;32;33279;-88
2024/01/20 04:03:32;;;;;;;0.43;0.37;;;;;;;0.84;56.76;100886.25;4468013;32;33228;-88
2024/01/20 04:06:00;;;;;;;3.35;1.33;;;;;;;0.60;57.67;100884.19;4482476;32;34048;-92
2024/01/20 04:08:27;;;;;;;0.05;0.05;;;;;;;1.00;56.58;100889.94;4465202;32;33371;-91
2024/01/20 04:10:55;;;;;;;0.00;0.00;;;;;;;1.00;57.01;100882.16;4464518;32;32987;-91
2024/01/20 04:13:23;;;;;;;0.47;0.47;;;;;;;1.00;56.97;100892.56;4456892;32;31933;-91
2024/01/20 04:15:53;;;;;;;0.65;0.65;;;;;;;0.32;58.97;100889.84;4462906;32;34131;-89
2024/01/20 04:18:21;;;;;;;0.40;0.40;;;;;;;0.81;57.66;100883.63;4466273;32;32431;-89
2024/01/20 04:20:49;;;;;;;0.10;0.08;;;;;;;-0.02;60.10;100884.13;4468770;32;33682;-88
2024/01/20 04:23:17;;;;;;;0.30;0.30;;;;;;;0.49;58.85;100878.84;4450390;32;32646;-88
2024/01/20 04:25:46;;;;;;;0.00;0.00;;;;;;;0.32;59.26;100874.25;4463448;32;34591;-90
2024/01/20 04:28:14;;;;;;;0.00;0.00;;;;;;;0.60;59.17;100873.81;4471686;32;32673;-90
2024/01/20 04:30:42;;;;;;;0.10;0.10;;;;;;;0.27;60.11;100871.59;4458058;32;34018;-90
2024/01/20 04:33:10;;;;;;;0.22;0.22;;;;;;;0.42;59.59;100865.75;4478576;32;33954;-89
2024/01/20 04:35:38;;;;;;;0.00;0.00;;;;;;;0.61;58.79;100865.16;4471791;32;32524;-90
2024/01/20 04:38:05;;;;;;;0.45;0.45;;;;;;;0.96;57.22;100875.16;4463521;32;33192;-92
2024/01/20 04:40:33;;;;;;;1.17;0.20;;;;;;;1.07;56.63;100878.75;4471684;32;32596;-90
2024/01/20 04:43:01;;;;;;;0.35;0.35;;;;;;;0.63;57.83;100886.84;4467757;32;33397;-89
2024/01/20 04:45:28;;;;;;;0.00;0.00;;;;;;;1.05;56.83;100893.47;4455902;32;32884;-90
2024/01/20 04:47:57;;;;;;;0.30;0.30;;;;;;;0.90;57.18;100903.66;4458858;32;33474;-90
2024/01/20 04:50:25;;;;;;;0.00;0.00;;;;;;;1.15;56.02;100910.94;4463850;32;32693;-90
2024/01/20 04:52:53;;;;;;;0.00;0.00;;;;;;;1.18;55.98;100918.75;4457333;32;32686;-90
2024/01/20 04:55:21;;;;;;;0.30;0.30;;;;;;;1.20;55.67;100919.66;4463996;32;33533;-90
2024/01/20 04:57:48;;;;;;;0.00;0.00;;;;;;;1.11;55.73;100922.16;4460819;32;34789;-91
2024/01/20 05:00:16;;;;;;;2.65;1.45;;;;;;;0.90;56.64;100921.84;4464120;32;33240;-90
2024/01/20 05:02:44;;;;;;;0.00;0.00;;;;;;;1.17;55.99;100927.44;4468440;32;32783;-89
2024/01/20 05:05:11;;;;;;;0.00;0.00;;;;;;;1.10;55.95;100938.63;4459647;32;33769;-90
2024/01/20 05:07:39;;;;;;;0.13;0.13;;;;;;;0.79;57.06;100939.91;4462532;32;34184;-89
2024/01/20 05:10:07;;;;;;;1.27;1.17;;;;;;;0.93;56.66;100950.53;4449824;32;32448;-89
2024/01/20 05:12:35;;;;;;;0.00;0.00;;;;;;;1.23;56.00;100950.91;4447206;32;32632;-89
2024/01/20 05:15:02;;;;;;;0.00;0.00;;;;;;;1.30;55.69;100956.22;4462667;32;33824;-90
2024/01/20 05:17:31;;;;;;;1.25;1.20;;;;;;;0.72;57.30;100959.78;4477394;32;34027;-90
2024/01/20 05:19:58;;;;;;;0.10;0.10;;;;;;;0.67;57.95;100961.44;4470379;32;32370;-90
2024/01/20 05:22:27;;;;;;;0.30;0.30;;;;;;;1.07;56.43;100955.91;4452701;32;32267;-90
2024/01/20 05:24:54;;;;;;;0.88;0.85;;;;;;;1.34;55.71;100963.22;4458747;32;32668;-89
2024/01/20 05:27:22;;;;;;;0.00;0.00;;;;;;;0.87;56.63;100959.13;4446661;32;34112;-88
2024/01/20 05:29:50;;;;;;;0.17;0.17;;;;;;;0.84;57.50;100966.00;4448656;32;32659;-88
2024/01/20 05:32:18;;;;;;;0.28;0.28;;;;;;;0.87;57.12;100969.50;4450818;32;31826;-87
2024/01/20 05:34:46;;;;;;;0.00;0.00;;;;;;;0.97;57.09;100980.91;4465045;32;33904;-87
2024/01/20 05:37:13;;;;;;;1.08;1.08;;;;;;;0.67;57.48;100978.75;4461921;32;33654;-87
2024/01/20 05:39:42;;;;;;;0.22;0.22;;;;;;;0.55;58.10;100982.03;4466639;32;32293;-87
2024/01/20 05:42:09;;;;;;;0.37;0.37;;;;;;;0.85;56.63;100985.94;4468539;32;32543;-87
2024/01/20 05:44:37;;;;;;;0.00;0.00;;;;;;;1.27;55.67;100983.91;4459763;32;32476;-87
2024/01/20 05:47:05;;;;;;;0.20;0.20;;;;;;;1.39;55.38;100980.63;4471187;32;33992;-88
2024/01/20 05:49:32;;;;;;;0.40;0.40;;;;;;;0.98;56.73;100977.47;4460003;32;32315;-88
2024/01/20 05:52:00;;;;;;;0.00;0.00;;;;;;;1.06;56.41;100988.84;4470505;32;34005;-88
2024/01/20 05:54:28;;;;;;;0.20;0.20;;;;;;;1.04;56.70;100993.13;4474709;32;33566;-88
2024/01/20 05:56:56;;;;;;;0.62;0.62;;;;;;;0.93;56.34;100997.31;4448255;32;33276;-87
2024/01/20 05:59:24;;;;;;;0.22;0.22;;;;;;;0.66;57.57;101001.25;4475838;31;33355;-88
2024/01/20 06:01:52;;;;;;;0.90;0.30;;;;;;;0.67;57.74;101008.22;4463415;32;31802;-88
2024/01/20 06:04:21;;;;;;;0.22;0.22;;;;;;;0.74;57.28;101012.66;4475490;32;32398;-88
2024/01/20 06:06:49;;;;;;;0.10;0.10;;;;;;;0.73;57.62;101016.09;4462903;32;33697;-88
2024/01/20 06:09:17;;;;;;;0.35;0.35;;;;;;;0.70;57.61;101017.78;4458080;32;32401;-87
2024/01/20 06:11:45;;;;;;;11.60;2.83;;;;;;;0.54;58.07;101021.84;4466284;32;31787;-88
2024/01/20 06:14:12;;;;;;;0.20;0.20;;;;;;;0.68;57.34;101030.75;4477254;32;34479;-86
2024/01/20 06:16:41;;;;;;;0.20;0.20;;;;;;;0.42;58.52;101032.91;4468453;32;32767;-88
2024/01/20 06:19:09;;;;;;;0.00;0.00;;;;;;;0.79;57.21;101030.91;4463409;32;32514;-88
2024/01/20 06:21:37;;;;;;;0.35;0.22;;;;;;;0.60;57.58;101039.28;4464454;32;34016;-90
2024/01/20 06:24:05;;;;;;;0.00;0.00;;;;;;;0.89;56.56;101032.81;4459080;32;32982;-89
2024/01/20 06:26:33;;;;;;;0.15;0.15;;;;;;;0.80;57.20;101040.47;4465157;32;33840;-90
2024/01/20 06:29:02;;;;;;;0.10;0.10;;;;;;;0.97;56.60;101038.13;4460799;32;32752;-88
2024/01/20 06:31:29;;;;;;;0.10;0.03;;;;;;;0.98;56.17;101045.06;4448916;32;31828;-89
2024/01/20 06:33:57;;;;;;;0.00;0.00;;;;;;;0.88;56.88;101048.38;4448614;32;32252;-90
2024/01/20 06:36:25;;;;;;;0.00;0.00;;;;;;;1.01;56.39;101050.34;4466435;32;30985;-90
2024/01/20 06:38:53;;;;;;;0.00;0.00;;;;;;;0.88;56.45;101048.38;4446290;32;34009;-90
2024/01/20 06:41:21;;;;;;;0.90;0.55;;;;;;;0.79;57.03;101054.31;4475338;32;32862;-90
2024/01/20 06:43:49;;;;;;;0.00;0.00;;;;;;;0.74;56.09;101062.03;4474993;32;34193;-90
2024/01/20 06:46:16;;;;;;;0.68;0.68;;;;;;;0.81;56.94;101062.12;4476073;32;32071;-88
2024/01/20 06:48:44;;;;;;;1.10;0.95;;;;;;;1.07;56.21;101073.84;4464389;32;33424;-87
2024/01/20 06:51:14;;;;;;;0.00;0.00;;;;;;;1.22;55.54;101075.78;4480485;32;33428;-89
2024/01/20 06:53:43;;;;;;;0.00;0.00;;;;;;;1.33;55.24;101083.75;4456246;32;32171;-89
2024/01/20 06:56:11;;;;;;;0.00;0.00;;;;;;;1.30;55.50;101091.53;4463030;32;34628;-88
2024/01/20 06:58:39;;;;;;;0.10;0.10;;;;;;;1.37;55.35;101095.94;4477800;32;34269;-88
2024/01/20 07:01:07;;;;;;;0.28;0.28;;;;;;;1.50;54.72;101097.87;4459901;32;33665;-88
2024/01/20 07:03:35;;;;;;;0.10;0.10;;;;;;;1.52;54.74;101110.06;4472516;32;34535;-88
2024/01/20 07:06:04;;;;;;;0.70;0.70;;;;;;;1.32;55.14;101108.00;4474350;32;34216;-88
2024/01/20 07:08:32;;;;;;;0.40;0.40;;;;;;;1.65;54.88;101113.69;4466966;32;32786;-88
2024/01/20 07:11:00;;;;;;;0.20;0.20;;;;;;;1.06;55.54;101131.03;4461749;32;34159;-88
2024/01/20 07:13:27;;;;;;;3.40;1.60;;;;;;;1.35;55.48;101118.47;4467391;31;33893;-88
2024/01/20 07:15:55;;;;;;;0.47;0.47;;;;;;;1.52;55.22;101130.03;4460524;32;34276;-89
2024/01/20 07:18:23;;;;;;;1.17;0.95;;;;;;;1.44;55.30;101124.69;4464242;32;33636;-88
2024/01/20 07:20:52;;;;;;;0.13;0.13;;;;;;;1.44;55.35;101134.22;4465098;32;33296;-90
2024/01/20 07:23:20;;;;;;;1.10;0.40;;;;;;;1.47;55.07;101132.56;4454239;32;33068;-87
2024/01/20 07:25:48;;;;;;;0.10;0.10;;;;;;;1.95;54.02;101139.28;4462875;32;32985;-89
2024/01/20 07:28:16;;;;;;;0.62;0.62;;;;;;;1.49;54.88;101140.38;4454030;32;33166;-89
2024/01/20 07:30:44;;;;;;;0.75;0.65;;;;;;;1.36;55.42;101148.84;4466702;32;33839;-90
2024/01/20 07:33:12;;;;;;;0.20;0.20;;;;;;;1.49;55.25;101149.06;4461214;32;32829;-89
2024/01/20 07:35:39;;;;;;;1.17;1.17;;;;;;;1.58;54.94;101153.53;4451425;32;32614;-90
2024/01/20 07:38:07;;;;;;;2.78;2.53;;;;;;;1.16;56.25;101159.81;4463455;32;33194;-90
2024/01/20 07:40:35;;;;;;;1.10;0.93;;;;;;;1.46;56.20;101154.22;4462776;32;33236;-89
2024/01/20 07:43:09;;;;;;;0.30;0.30;;;;;;;1.64;54.99;101157.94;4460668;32;30741;-90
2024/01/20 07:45:40;;;;;;;2.28;0.75;;;;;;;1.28;56.47;101165.25;4458581;32;33895;-90
2024/01/20 07:48:08;;;;;;;0.90;0.80;;;;;;;1.57;56.05;101161.28;4449944;32;34043;-90
2024/01/20 07:50:35;;;;;;;0.28;0.28;;;;;;;1.66;55.63;101172.75;4458140;32;32851;-90
2024/01/20 07:53:03;;;;;;;0.00;0.00;;;;;;;1.47;56.25;101173.31;4464243;32;32144;-90
2024/01/20 07:55:31;;;;;;;0.32;0.32;;;;;;;1.72;56.12;101178.03;4473961;32;34120;-90
2024/01/20 07:57:59;;;;;;;1.17;0.57;;;;;;;1.57;55.76;101183.03;4462397;32;33008;-89
2024/01/20 08:00:28;;;;;;;0.77;0.77;;;;;;;1.44;56.75;101191.50;4454396;32;33754;-90
2024/01/20 08:02:56;;;;;;;0.13;0.13;;;;;;;2.01;54.88;101185.38;4454222;32;34029;-90
2024/01/20 08:05:23;;;;;;;0.22;0.22;;;;;;;1.92;55.66;101186.13;4459358;32;33711;-90
2024/01/20 08:07:51;;;;;;;0.10;0.10;;;;;;;2.18;54.51;101181.22;4448209;32;32930;-90
2024/01/20 08:10:20;;;;;;;0.05;0.05;;;;;;;1.76;56.31;101181.56;4464174;32;32867;-88
2024/01/20 08:12:47;;;;;;;0.65;0.65;;;;;;;1.88;55.82;101188.66;4475106;31;32584;-87
2024/01/20 08:15:15;;;;;;;0.00;0.00;;;;;;;1.93;56.05;101187.88;4451106;32;32821;-90
2024/01/20 08:17:43;;;;;;;0.30;0.30;;;;;;;2.10;55.37;101190.72;4473750;32;33464;-90
2024/01/20 08:20:11;;;;;;;0.20;0.20;;;;;;;2.11;55.12;101195.06;4474665;32;34056;-90
2024/01/20 08:22:39;;;;;;;1.00;0.85;;;;;;;2.37;54.74;101199.72;4454366;32;32520;-90
2024/01/20 08:25:08;;;;;;;2.40;1.42;;;;;;;2.40;54.41;101189.34;4475198;32;33718;-90
2024/01/20 08:27:36;;;;;;;0.00;0.00;;;;;;;2.45;53.95;101192.87;4465440;32;34744;-91
2024/01/20 08:30:04;;;;;;;0.70;0.70;;;;;;;2.33;54.34;101200.53;4474742;32;33114;-89
2024/01/20 08:32:33;;;;;;;0.73;0.73;;;;;;;2.10;55.20;101201.12;4449332;32;35634;-89
2024/01/20 08:35:00;;;;;;;0.00;0.00;;;;;;;2.55;53.79;101205.16;4460604;32;33047;-89
2024/01/20 08:37:28;;;;;;;0.55;0.45;;;;;;;2.55;53.92;101199.94;4466296;32;34551;-89
2024/01/20 08:39:56;;;;;;;0.00;0.00;;;;;;;2.23;54.31;101207.34;4454784;32;33155;-90
2024/01/20 08:42:26;;;;;;;0.47;0.47;;;;;;;2.60;53.49;101208.69;4458986;32;33642;-90
2024/01/20 08:44:54;;;;;;;0.20;0.20;;;;;;;2.87;53.17;101207.25;4472998;32;33657;-89
2024/01/20 08:47:22;;;;;;;0.00;0.00;;;;;;;2.81;53.29;101208.06;4461667;32;33583;-90
2024/01/20 08:49:51;;;;;;;0.10;0.10;;;;;;;2.39;54.25;101217.13;4457448;32;32449;-91
2024/01/20 08:52:19;;;;;;;1.37;1.27;;;;;;;2.90;53.22;101217.72;4462491;32;33025;-89
2024/01/20 08:54:47;;;;;;;1.10;1.10;;;;;;;2.93;52.93;101221.22;4456479;32;33288;-92
2024/01/20 08:57:15;;;;;;;0.00;0.00;;;;;;;3.31;52.28;101218.94;4475949;32;33437;-92
2024/01/20 08:59:43;;;;;;;0.10;0.10;;;;;;;3.29;52.18;101217.22;4473789;32;34094;-91
2024/01/20 09:02:11;;;;;;;2.15;1.95;;;;;;;3.65;51.64;101223.56;4467699;32;33201;-91
2024/01/20 09:04:39;;;;;;;0.30;0.30;;;;;;;3.40;51.78;101236.44;4474900;32;33602;-89
2024/01/20 09:07:07;;;;;;;0.28;0.28;;;;;;;3.47;51.76;101237.37;4462532;32;33683;-87
2024/01/20 09:09:35;;;;;;;1.48;1.37;;;;;;;3.58;51.92;101241.81;4474366;32;33398;-88
2024/01/20 09:12:03;;;;;;;1.52;0.75;;;;;;;3.81;51.83;101236.75;4461422;32;33862;-89
2024/01/20 09:14:31;;;;;;;0.00;0.00;;;;;;;3.79;50.96;101246.31;4463293;32;32692;-88
2024/01/20 09:16:59;;;;;;;0.93;0.93;;;;;;;3.87;50.96;101248.13;4466737;32;32457;-89
2024/01/20 09:19:26;;;;;;;3.10;1.35;;;;;;;4.23;49.65;101247.47;4463504;32;33155;-89
2024/01/20 09:21:54;;;;;;;1.12;1.08;;;;;;;4.34;49.04;101253.63;4476303;32;33057;-89
2024/01/20 09:24:22;;;;;;;0.20;0.20;;;;;;;4.40;49.77;101250.16;4464686;32;32637;-89
2024/01/20 09:26:50;;;;;;;0.00;0.00;;;;;;;4.45;48.86;101244.06;4463940;32;33677;-89
2024/01/20 09:29:18;;;;;;;1.65;1.27;;;;;;;4.35;49.01;101235.31;4456886;32;32601;-90
2024/01/20 09:31:46;;;;;;;0.35;0.35;;;;;;;4.50;48.75;101231.03;4456012;32;32498;-90
2024/01/20 09:34:14;;;;;;;0.88;0.88;;;;;;;4.24;49.21;101239.63;4452615;32;33248;-89
2024/01/20 09:36:42;;;;;;;0.75;0.75;;;;;;;4.53;48.82;101231.03;4473690;32;33825;-89
2024/01/20 09:39:12;;;;;;;0.37;0.37;;;;;;;4.40;49.08;101229.25;4454385;32;32768;-90
2024/01/20 09:41:40;;;;;;;1.37;1.00;;;;;;;4.70;48.16;101228.47;4463095;32;32125;-89
2024/01/20 09:44:12;;;;;;;0.00;0.00;;;;;;;5.19;46.73;101224.22;4477163;32;34866;-89
2024/01/20 09:46:40;;;;;;;0.00;0.00;;;;;;;4.62;48.52;101226.72;4462807;32;33222;-89
2024/01/20 09:49:08;;;;;;;0.20;0.20;;;;;;;4.86;48.29;101222.44;4463248;32;32175;-89
2024/01/20 09:51:41;;;;;;;0.00;0.00;;;;;;;4.63;48.42;101227.59;4457974;32;34552;-89
2024/01/20 09:54:09;;;;;;;4.70;3.28;;;;;;;4.46;49.40;101224.03;4469108;32;32529;-90
2024/01/20 09:56:37;;;;;;;1.00;1.00;;;;;;;4.65;49.18;101220.59;4469107;32;33755;-90
2024/01/20 09:59:05;;;;;;;0.08;0.08;;;;;;;4.17;50.31;101222.16;4464086;32;32336;-89
2024/01/20 10:01:33;;;;;;;0.30;0.30;;;;;;;4.60;49.69;101214.50;4466308;32;32576;-89
2024/01/20 10:04:05;;;;;;;0.93;0.93;;;;;;;4.64;48.48;101208.41;4461284;32;33603;-90
2024/01/20 10:06:33;;;;;;;0.80;0.80;;;;;;;4.78;49.10;101217.16;4455692;32;32465;-89
2024/01/20 10:09:00;;;;;;;3.55;2.28;;;;;;;5.33;47.55;101217.25;4454981;32;31415;-90
2024/01/20 10:11:28;;;;;;;0.30;0.30;;;;;;;5.07;47.44;101211.09;4466563;32;34447;-89
2024/01/20 10:13:57;;;;;;;0.98;0.98;;;;;;;5.09;47.32;101207.63;4458017;32;34813;-90
2024/01/20 10:16:24;;;;;;;0.00;0.00;;;;;;;5.19;47.18;101212.87;4478340;32;32639;-90
2024/01/20 10:18:52;;;;;;;0.30;0.30;;;;;;;5.52;45.66;101212.03;4464048;32;32322;-90
2024/01/20 10:21:21;;;;;;;0.15;0.15;;;;;;;5.55;46.13;101207.63;4462993;32;31966;-90
2024/01/20 10:23:49;;;;;;;3.97;1.75;;;;;;;5.47;46.13;101208.53;4465572;32;33796;-90
2024/01/20 10:26:17;;;;;;;0.65;0.65;;;;;;;5.15;47.09;101214.62;4462885;32;31903;-90
2024/01/20 10:28:45;;;;;;;0.62;0.62;;;;;;;5.72;45.90;101209.38;4458749;32;31782;-89
2024/01/20 10:31:13;;;;;;;0.37;0.37;;;;;;;6.29;44.73;101205.75;4466573;32;33394;-90
2024/01/20 10:33:42;;;;;;;0.28;0.28;;;;;;;6.06;45.40;101200.59;4457620;32;33357;-89
2024/01/20 10:36:12;;;;;;;0.20;0.20;;;;;;;6.07;45.06;101206.69;4470318;32;33092;-89
2024/01/20 10:38:40;;;;;;;0.95;0.95;;;;;;;5.45;45.96;101210.25;4450497;32;32226;-89
2024/01/20 10:41:09;;;;;;;0.73;0.73;;;;;;;6.21;45.24;101204.91;4467407;32;33234;-89
2024/01/20 10:43:39;;;;;;;0.00;0.00;;;;;;;6.36;44.14;101204.88;4461979;32;34464;-90
2024/01/20 10:46:22;;;;;;;0.85;0.85;;;;;;;6.72;43.23;101204.69;4461239;32;34127;-90
2024/01/20 10:48:54;;;;;;;0.30;0.30;;;;;;;6.09;45.20;101215.44;4463664;32;31693;-89
2024/01/20 10:51:29;;;;;;;0.98;0.98;;;;;;;6.54;43.69;101213.53;4468125;32;33152;-89
2024/01/20 10:53:58;;;;;;;0.57;0.57;;;;;;;6.95;42.37;101215.06;4476241;32;33663;-90
2024/01/20 10:56:26;;;;;;;0.43;0.43;;;;;;;6.83;43.01;101209.00;4463071;32;33057;-90
2024/01/20 10:58:58;;;;;;;0.10;0.10;;;;;;;5.89;45.47;101207.59;4476981;32;33265;-90
2024/01/20 11:01:26;;;;;;;0.08;0.08;;;;;;;6.53;43.32;101214.41;4477357;32;33181;-89
2024/01/20 11:03:54;;;;;;;0.68;0.68;;;;;;;6.13;44.23;101207.56;4463988;32;32366;-89
2024/01/20 11:06:23;;;;;;;0.10;0.10;;;;;;;5.62;46.88;101209.38;4455767;32;33335;-90
2024/01/20 11:08:52;;;;;;;0.52;0.52;;;;;;;5.84;46.48;101210.25;4460554;32;31699;-90
2024/01/20 11:11:29;;;;;;;0.57;0.57;;;;;;;6.75;43.59;101213.44;4464072;32;33245;-90
2024/01/20 11:13:58;;;;;;;0.95;0.95;;;;;;;5.94;45.48;101215.50;4461405;32;33353;-90
2024/01/20 11:16:29;;;;;;;0.10;0.10;;;;;;;6.50;44.57;101220.53;4474415;32;33537;-90
2024/01/20 11:19:09;;;;;;;0.32;0.32;;;;;;;7.07;42.57;101207.09;4477308;32;33758;-91
2024/01/20 11:21:37;;;;;;;0.82;0.80;;;;;;;6.90;43.45;101213.34;4470469;32;33835;-90
2024/01/20 11:24:06;;;;;;;0.30;0.30;;;;;;;6.78;44.03;101221.28;4480918;32;34573;-90
2024/01/20 11:26:35;;;;;;;0.62;0.62;;;;;;;6.55;45.05;101217.88;4462280;32;33052;-90
2024/01/20 11:29:07;;;;;;;0.10;0.10;;;;;;;6.87;43.56;101208.09;4483385;32;33136;-91
2024/01/20 11:31:35;;;;;;;0.28;0.28;;;;;;;6.30;45.63;101204.88;4478116;32;33716;-91
2024/01/20 11:34:05;;;;;;;0.10;0.10;;;;;;;6.67;44.37;101205.59;4461714;32;33137;-91
2024/01/20 11:36:34;;;;;;;1.95;1.23;;;;;;;6.55;44.67;101204.75;4454710;32;32089;-90
2024/01/20 11:39:04;;;;;;;0.40;0.40;;;;;;;6.93;43.59;101218.59;4471405;32;33065;-90